sensor_id;sensor_type;location;lat;lon;timestamp;P1;durP1;ratioP1;P2;durP2;ratioP2
49366;SDS011;35245;52.026;8.540;2022-10-31T00:02:16;24.40;;;11.63;;
49366;SDS011;35245;52.026;8.540;2022-10-31T00:04:46;24.70;;;12.20;;
49366;SDS011;35245;52.026;8.540;2022-10-31T00:07:13;18.58;;;11.40;;
49366;SDS011;35245;52.026;8.540;2022-10-31T00:09:39;23.55;;;12.23;;
49366;SDS011;35245;52.026;8.540;2022-10-31T00:12:06;24.60;;;13.25;;
49366;SDS011;35245;52.026;8.540;2022-10-31T00:14:35;22.63;;;12.25;;
49366;SDS011;35245;52.026;8.540;2022-10-31T00:17:02;23.55;;;13.82;;
49366;SDS011;35245;52.026;8.540;2022-10-31T00:19:29;21.27;;;12.63;;
49366;SDS011;35245;52.026;8.540;2022-10-31T00:21:56;20.40;;;12.02;;
49366;SDS011;35245;52.026;8.540;2022-10-31T00:24:23;22.08;;;13.43;;
49366;SDS011;35245;52.026;8.540;2022-10-31T00:26:50;25.00;;;12.88;;
49366;SDS011;35245;52.026;8.540;2022-10-31T00:29:17;21.48;;;11.82;;
49366;SDS011;35245;52.026;8.540;2022-10-31T00:31:45;23.90;;;12.40;;
49366;SDS011;35245;52.026;8.540;2022-10-31T00:34:12;22.95;;;13.93;;
49366;SDS011;35245;52.026;8.540;2022-10-31T00:36:39;22.30;;;12.23;;
49366;SDS011;35245;52.026;8.540;2022-10-31T00:39:06;23.45;;;13.10;;
49366;SDS011;35245;52.026;8.540;2022-10-31T00:41:33;24.70;;;13.85;;
49366;SDS011;35245;52.026;8.540;2022-10-31T00:44:00;22.02;;;13.00;;
49366;SDS011;35245;52.026;8.540;2022-10-31T00:46:27;19.35;;;12.20;;
49366;SDS011;35245;52.026;8.540;2022-10-31T00:48:56;20.77;;;12.27;;
49366;SDS011;35245;52.026;8.540;2022-10-31T00:51:23;22.33;;;12.18;;
49366;SDS011;35245;52.026;8.540;2022-10-31T00:53:50;18.23;;;12.52;;
49366;SDS011;35245;52.026;8.540;2022-10-31T00:56:17;21.98;;;11.43;;
49366;SDS011;35245;52.026;8.540;2022-10-31T00:58:44;20.50;;;12.35;;
49366;SDS011;35245;52.026;8.540;2022-10-31T01:01:11;22.00;;;11.80;;
49366;SDS011;35245;52.026;8.540;2022-10-31T01:03:37;23.58;;;12.20;;
49366;SDS011;35245;52.026;8.540;2022-10-31T01:06:07;21.35;;;12.25;;
49366;SDS011;35245;52.026;8.540;2022-10-31T01:08:36;20.52;;;12.02;;
49366;SDS011;35245;52.026;8.540;2022-10-31T01:11:05;23.88;;;12.90;;
49366;SDS011;35245;52.026;8.540;2022-10-31T01:13:33;21.73;;;11.50;;
49366;SDS011;35245;52.026;8.540;2022-10-31T01:16:01;24.30;;;12.48;;
49366;SDS011;35245;52.026;8.540;2022-10-31T01:18:29;23.83;;;13.75;;
49366;SDS011;35245;52.026;8.540;2022-10-31T01:21:03;25.38;;;13.65;;
49366;SDS011;35245;52.026;8.540;2022-10-31T01:23:32;23.05;;;12.90;;
49366;SDS011;35245;52.026;8.540;2022-10-31T01:26:00;26.33;;;13.70;;
49366;SDS011;35245;52.026;8.540;2022-10-31T01:28:28;23.73;;;13.60;;
49366;SDS011;35245;52.026;8.540;2022-10-31T01:30:59;26.63;;;13.27;;
49366;SDS011;35245;52.026;8.540;2022-10-31T01:33:27;25.42;;;13.88;;
49366;SDS011;35245;52.026;8.540;2022-10-31T01:35:53;24.17;;;13.45;;
49366;SDS011;35245;52.026;8.540;2022-10-31T01:38:20;22.02;;;12.50;;
49366;SDS011;35245;52.026;8.540;2022-10-31T01:40:49;23.17;;;12.68;;
49366;SDS011;35245;52.026;8.540;2022-10-31T01:43:16;23.45;;;12.85;;
49366;SDS011;35245;52.026;8.540;2022-10-31T01:45:44;24.25;;;12.20;;
49366;SDS011;35245;52.026;8.540;2022-10-31T01:50:42;25.70;;;13.73;;
49366;SDS011;35245;52.026;8.540;2022-10-31T01:53:11;23.75;;;13.70;;
49366;SDS011;35245;52.026;8.540;2022-10-31T01:55:39;23.17;;;13.80;;
49366;SDS011;35245;52.026;8.540;2022-10-31T01:58:11;27.60;;;14.07;;
49366;SDS011;35245;52.026;8.540;2022-10-31T02:00:39;22.45;;;12.85;;
49366;SDS011;35245;52.026;8.540;2022-10-31T02:03:09;20.98;;;14.48;;
49366;SDS011;35245;52.026;8.540;2022-10-31T02:05:36;22.85;;;14.18;;
49366;SDS011;35245;52.026;8.540;2022-10-31T02:08:04;21.95;;;14.60;;
49366;SDS011;35245;52.026;8.540;2022-10-31T02:10:34;22.58;;;13.25;;
49366;SDS011;35245;52.026;8.540;2022-10-31T02:13:04;21.55;;;12.90;;
49366;SDS011;35245;52.026;8.540;2022-10-31T02:15:33;26.63;;;14.55;;
49366;SDS011;35245;52.026;8.540;2022-10-31T02:18:02;23.20;;;14.75;;
49366;SDS011;35245;52.026;8.540;2022-10-31T02:20:31;21.30;;;13.05;;
49366;SDS011;35245;52.026;8.540;2022-10-31T02:26:06;26.15;;;13.60;;
49366;SDS011;35245;52.026;8.540;2022-10-31T02:28:51;26.25;;;15.02;;
49366;SDS011;35245;52.026;8.540;2022-10-31T02:31:35;23.77;;;14.65;;
49366;SDS011;35245;52.026;8.540;2022-10-31T02:34:09;27.45;;;14.38;;
49366;SDS011;35245;52.026;8.540;2022-10-31T02:36:41;24.40;;;14.48;;
49366;SDS011;35245;52.026;8.540;2022-10-31T02:39:11;21.83;;;12.93;;
49366;SDS011;35245;52.026;8.540;2022-10-31T02:41:42;26.38;;;14.90;;
49366;SDS011;35245;52.026;8.540;2022-10-31T02:44:15;28.90;;;15.73;;
49366;SDS011;35245;52.026;8.540;2022-10-31T02:46:47;25.33;;;15.23;;
49366;SDS011;35245;52.026;8.540;2022-10-31T02:49:19;25.95;;;16.45;;
49366;SDS011;35245;52.026;8.540;2022-10-31T02:51:49;23.90;;;14.85;;
49366;SDS011;35245;52.026;8.540;2022-10-31T02:54:17;25.95;;;15.52;;
49366;SDS011;35245;52.026;8.540;2022-10-31T02:56:46;20.17;;;14.40;;
49366;SDS011;35245;52.026;8.540;2022-10-31T02:59:13;24.38;;;15.45;;
49366;SDS011;35245;52.026;8.540;2022-10-31T03:01:47;26.70;;;16.08;;
49366;SDS011;35245;52.026;8.540;2022-10-31T03:04:56;25.05;;;15.20;;
49366;SDS011;35245;52.026;8.540;2022-10-31T03:07:34;27.85;;;14.93;;
49366;SDS011;35245;52.026;8.540;2022-10-31T03:10:11;25.08;;;15.05;;
49366;SDS011;35245;52.026;8.540;2022-10-31T03:12:46;26.05;;;15.73;;
49366;SDS011;35245;52.026;8.540;2022-10-31T03:15:17;25.38;;;14.35;;
49366;SDS011;35245;52.026;8.540;2022-10-31T03:17:52;29.02;;;15.82;;
49366;SDS011;35245;52.026;8.540;2022-10-31T03:20:22;28.75;;;16.05;;
49366;SDS011;35245;52.026;8.540;2022-10-31T03:22:52;25.38;;;15.63;;
49366;SDS011;35245;52.026;8.540;2022-10-31T03:25:21;27.65;;;15.50;;
49366;SDS011;35245;52.026;8.540;2022-10-31T03:27:48;28.55;;;15.50;;
49366;SDS011;35245;52.026;8.540;2022-10-31T03:30:16;27.95;;;15.75;;
49366;SDS011;35245;52.026;8.540;2022-10-31T03:32:43;25.45;;;15.27;;
49366;SDS011;35245;52.026;8.540;2022-10-31T03:35:14;25.70;;;15.98;;
49366;SDS011;35245;52.026;8.540;2022-10-31T03:37:43;22.27;;;14.93;;
49366;SDS011;35245;52.026;8.540;2022-10-31T03:40:10;28.52;;;15.82;;
49366;SDS011;35245;52.026;8.540;2022-10-31T03:42:40;26.55;;;17.20;;
49366;SDS011;35245;52.026;8.540;2022-10-31T03:45:10;22.40;;;15.65;;
49366;SDS011;35245;52.026;8.540;2022-10-31T03:47:38;26.58;;;16.20;;
49366;SDS011;35245;52.026;8.540;2022-10-31T03:50:06;25.25;;;16.15;;
49366;SDS011;35245;52.026;8.540;2022-10-31T03:52:36;24.17;;;16.60;;
49366;SDS011;35245;52.026;8.540;2022-10-31T03:55:07;28.05;;;16.52;;
49366;SDS011;35245;52.026;8.540;2022-10-31T03:57:37;29.27;;;17.20;;
49366;SDS011;35245;52.026;8.540;2022-10-31T04:00:08;32.40;;;16.83;;
49366;SDS011;35245;52.026;8.540;2022-10-31T04:02:37;28.75;;;16.10;;
49366;SDS011;35245;52.026;8.540;2022-10-31T04:05:06;27.40;;;15.30;;
49366;SDS011;35245;52.026;8.540;2022-10-31T04:07:36;30.45;;;17.02;;
49366;SDS011;35245;52.026;8.540;2022-10-31T04:10:07;31.92;;;17.33;;
49366;SDS011;35245;52.026;8.540;2022-10-31T04:12:35;28.88;;;18.52;;
49366;SDS011;35245;52.026;8.540;2022-10-31T04:15:05;31.10;;;18.35;;
49366;SDS011;35245;52.026;8.540;2022-10-31T04:17:35;28.05;;;17.48;;
49366;SDS011;35245;52.026;8.540;2022-10-31T04:20:05;29.98;;;18.05;;
49366;SDS011;35245;52.026;8.540;2022-10-31T04:22:33;30.20;;;17.50;;
49366;SDS011;35245;52.026;8.540;2022-10-31T04:25:02;26.27;;;16.83;;
49366;SDS011;35245;52.026;8.540;2022-10-31T04:27:29;33.35;;;18.20;;
49366;SDS011;35245;52.026;8.540;2022-10-31T04:29:56;29.67;;;18.00;;
49366;SDS011;35245;52.026;8.540;2022-10-31T04:32:24;33.15;;;19.42;;
49366;SDS011;35245;52.026;8.540;2022-10-31T04:34:51;29.48;;;19.73;;
49366;SDS011;35245;52.026;8.540;2022-10-31T04:37:18;36.20;;;20.38;;
49366;SDS011;35245;52.026;8.540;2022-10-31T04:39:46;37.42;;;20.10;;
49366;SDS011;35245;52.026;8.540;2022-10-31T04:42:13;35.13;;;20.23;;
49366;SDS011;35245;52.026;8.540;2022-10-31T04:44:40;38.90;;;24.00;;
49366;SDS011;35245;52.026;8.540;2022-10-31T04:47:07;32.45;;;19.38;;
49366;SDS011;35245;52.026;8.540;2022-10-31T04:49:34;32.55;;;19.33;;
49366;SDS011;35245;52.026;8.540;2022-10-31T04:52:01;29.50;;;19.00;;
49366;SDS011;35245;52.026;8.540;2022-10-31T04:54:29;26.83;;;18.40;;
49366;SDS011;35245;52.026;8.540;2022-10-31T04:56:57;36.30;;;19.10;;
49366;SDS011;35245;52.026;8.540;2022-10-31T04:59:24;27.35;;;17.63;;
49366;SDS011;35245;52.026;8.540;2022-10-31T05:01:51;27.08;;;17.85;;
49366;SDS011;35245;52.026;8.540;2022-10-31T05:04:18;27.98;;;18.08;;
49366;SDS011;35245;52.026;8.540;2022-10-31T05:06:45;29.40;;;18.73;;
49366;SDS011;35245;52.026;8.540;2022-10-31T05:09:12;25.90;;;18.30;;
49366;SDS011;35245;52.026;8.540;2022-10-31T05:11:39;29.70;;;18.05;;
49366;SDS011;35245;52.026;8.540;2022-10-31T05:14:07;28.83;;;18.45;;
49366;SDS011;35245;52.026;8.540;2022-10-31T05:16:34;32.80;;;18.90;;
49366;SDS011;35245;52.026;8.540;2022-10-31T05:19:01;32.53;;;19.13;;
49366;SDS011;35245;52.026;8.540;2022-10-31T05:21:28;32.95;;;19.98;;
49366;SDS011;35245;52.026;8.540;2022-10-31T05:23:55;35.75;;;21.58;;
49366;SDS011;35245;52.026;8.540;2022-10-31T05:26:22;32.22;;;20.70;;
49366;SDS011;35245;52.026;8.540;2022-10-31T05:28:49;31.95;;;21.00;;
49366;SDS011;35245;52.026;8.540;2022-10-31T05:31:21;33.10;;;20.98;;
49366;SDS011;35245;52.026;8.540;2022-10-31T05:33:48;32.38;;;19.23;;
49366;SDS011;35245;52.026;8.540;2022-10-31T05:36:15;28.95;;;18.58;;
49366;SDS011;35245;52.026;8.540;2022-10-31T05:38:42;29.63;;;17.95;;
49366;SDS011;35245;52.026;8.540;2022-10-31T05:41:10;31.23;;;18.48;;
49366;SDS011;35245;52.026;8.540;2022-10-31T05:43:39;33.00;;;20.00;;
49366;SDS011;35245;52.026;8.540;2022-10-31T05:46:06;33.28;;;19.20;;
49366;SDS011;35245;52.026;8.540;2022-10-31T05:48:34;31.77;;;19.83;;
49366;SDS011;35245;52.026;8.540;2022-10-31T05:51:04;29.08;;;18.10;;
49366;SDS011;35245;52.026;8.540;2022-10-31T05:53:31;32.20;;;19.50;;
49366;SDS011;35245;52.026;8.540;2022-10-31T05:55:58;28.25;;;19.05;;
49366;SDS011;35245;52.026;8.540;2022-10-31T05:58:25;30.63;;;19.83;;
49366;SDS011;35245;52.026;8.540;2022-10-31T06:00:52;32.25;;;20.17;;
49366;SDS011;35245;52.026;8.540;2022-10-31T06:03:19;35.60;;;21.13;;
49366;SDS011;35245;52.026;8.540;2022-10-31T06:05:48;30.35;;;18.60;;
49366;SDS011;35245;52.026;8.540;2022-10-31T06:08:15;30.00;;;19.38;;
49366;SDS011;35245;52.026;8.540;2022-10-31T06:10:42;29.75;;;18.85;;
49366;SDS011;35245;52.026;8.540;2022-10-31T06:13:09;30.50;;;20.20;;
49366;SDS011;35245;52.026;8.540;2022-10-31T06:15:36;28.48;;;18.05;;
49366;SDS011;35245;52.026;8.540;2022-10-31T06:18:04;32.03;;;19.33;;
49366;SDS011;35245;52.026;8.540;2022-10-31T06:20:31;29.48;;;18.77;;
49366;SDS011;35245;52.026;8.540;2022-10-31T06:23:00;33.28;;;19.38;;
49366;SDS011;35245;52.026;8.540;2022-10-31T06:25:29;32.25;;;19.35;;
49366;SDS011;35245;52.026;8.540;2022-10-31T06:27:56;30.13;;;19.17;;
49366;SDS011;35245;52.026;8.540;2022-10-31T06:30:26;28.35;;;18.08;;
49366;SDS011;35245;52.026;8.540;2022-10-31T06:32:53;28.25;;;16.92;;
49366;SDS011;35245;52.026;8.540;2022-10-31T06:35:20;28.80;;;17.90;;
49366;SDS011;35245;52.026;8.540;2022-10-31T06:37:50;28.02;;;17.55;;
49366;SDS011;35245;52.026;8.540;2022-10-31T06:40:19;27.40;;;17.73;;
49366;SDS011;35245;52.026;8.540;2022-10-31T06:42:46;29.38;;;17.92;;
49366;SDS011;35245;52.026;8.540;2022-10-31T06:45:13;29.13;;;17.42;;
49366;SDS011;35245;52.026;8.540;2022-10-31T06:47:40;28.75;;;18.10;;
49366;SDS011;35245;52.026;8.540;2022-10-31T06:50:07;29.20;;;18.88;;
49366;SDS011;35245;52.026;8.540;2022-10-31T06:52:35;29.08;;;18.60;;
49366;SDS011;35245;52.026;8.540;2022-10-31T06:55:01;32.38;;;19.38;;
49366;SDS011;35245;52.026;8.540;2022-10-31T06:57:30;34.47;;;19.23;;
49366;SDS011;35245;52.026;8.540;2022-10-31T06:59:57;35.60;;;19.40;;
49366;SDS011;35245;52.026;8.540;2022-10-31T07:02:24;27.73;;;17.95;;
49366;SDS011;35245;52.026;8.540;2022-10-31T07:04:51;32.20;;;17.60;;
49366;SDS011;35245;52.026;8.540;2022-10-31T07:07:18;28.08;;;18.30;;
49366;SDS011;35245;52.026;8.540;2022-10-31T07:09:46;33.63;;;19.88;;
49366;SDS011;35245;52.026;8.540;2022-10-31T07:12:13;35.20;;;22.67;;
49366;SDS011;35245;52.026;8.540;2022-10-31T07:14:41;37.55;;;22.60;;
49366;SDS011;35245;52.026;8.540;2022-10-31T07:17:09;38.70;;;21.98;;
49366;SDS011;35245;52.026;8.540;2022-10-31T07:19:36;38.83;;;21.38;;
49366;SDS011;35245;52.026;8.540;2022-10-31T07:22:03;31.67;;;20.08;;
49366;SDS011;35245;52.026;8.540;2022-10-31T07:24:30;29.17;;;17.85;;
49366;SDS011;35245;52.026;8.540;2022-10-31T07:26:57;30.83;;;18.92;;
49366;SDS011;35245;52.026;8.540;2022-10-31T07:29:24;27.98;;;17.02;;
49366;SDS011;35245;52.026;8.540;2022-10-31T07:31:52;25.38;;;17.00;;
49366;SDS011;35245;52.026;8.540;2022-10-31T07:34:19;28.35;;;17.65;;
49366;SDS011;35245;52.026;8.540;2022-10-31T07:36:46;24.40;;;17.73;;
49366;SDS011;35245;52.026;8.540;2022-10-31T07:39:13;37.92;;;26.65;;
49366;SDS011;35245;52.026;8.540;2022-10-31T07:41:40;27.95;;;16.08;;
49366;SDS011;35245;52.026;8.540;2022-10-31T07:44:07;31.75;;;17.27;;
49366;SDS011;35245;52.026;8.540;2022-10-31T07:46:34;28.38;;;16.50;;
49366;SDS011;35245;52.026;8.540;2022-10-31T07:49:03;30.20;;;17.83;;
49366;SDS011;35245;52.026;8.540;2022-10-31T07:51:30;29.92;;;17.38;;
49366;SDS011;35245;52.026;8.540;2022-10-31T07:53:57;27.30;;;16.85;;
49366;SDS011;35245;52.026;8.540;2022-10-31T07:56:24;29.00;;;16.95;;
49366;SDS011;35245;52.026;8.540;2022-10-31T07:58:51;28.60;;;18.35;;
49366;SDS011;35245;52.026;8.540;2022-10-31T08:01:18;29.98;;;18.67;;
49366;SDS011;35245;52.026;8.540;2022-10-31T08:03:45;32.60;;;19.40;;
49366;SDS011;35245;52.026;8.540;2022-10-31T08:06:13;30.08;;;19.13;;
49366;SDS011;35245;52.026;8.540;2022-10-31T08:08:40;25.98;;;18.13;;
49366;SDS011;35245;52.026;8.540;2022-10-31T08:11:08;30.67;;;19.52;;
49366;SDS011;35245;52.026;8.540;2022-10-31T08:13:35;35.67;;;20.73;;
49366;SDS011;35245;52.026;8.540;2022-10-31T08:16:02;32.55;;;19.90;;
49366;SDS011;35245;52.026;8.540;2022-10-31T08:18:30;31.23;;;19.02;;
49366;SDS011;35245;52.026;8.540;2022-10-31T08:20:57;33.92;;;20.40;;
49366;SDS011;35245;52.026;8.540;2022-10-31T08:23:25;26.08;;;19.05;;
49366;SDS011;35245;52.026;8.540;2022-10-31T08:25:52;33.90;;;20.63;;
49366;SDS011;35245;52.026;8.540;2022-10-31T08:28:20;31.98;;;20.23;;
49366;SDS011;35245;52.026;8.540;2022-10-31T08:30:47;30.75;;;19.90;;
49366;SDS011;35245;52.026;8.540;2022-10-31T08:33:15;32.80;;;19.92;;
49366;SDS011;35245;52.026;8.540;2022-10-31T08:35:46;30.58;;;19.15;;
49366;SDS011;35245;52.026;8.540;2022-10-31T08:38:14;29.27;;;19.35;;
49366;SDS011;35245;52.026;8.540;2022-10-31T08:40:42;28.40;;;19.90;;
49366;SDS011;35245;52.026;8.540;2022-10-31T08:43:11;28.38;;;18.85;;
49366;SDS011;35245;52.026;8.540;2022-10-31T08:45:39;34.17;;;20.90;;
49366;SDS011;35245;52.026;8.540;2022-10-31T08:48:08;32.95;;;19.08;;
49366;SDS011;35245;52.026;8.540;2022-10-31T08:50:36;28.52;;;18.15;;
49366;SDS011;35245;52.026;8.540;2022-10-31T08:53:04;27.27;;;19.35;;
49366;SDS011;35245;52.026;8.540;2022-10-31T08:55:32;33.67;;;19.02;;
49366;SDS011;35245;52.026;8.540;2022-10-31T08:58:02;31.42;;;21.15;;
49366;SDS011;35245;52.026;8.540;2022-10-31T09:00:30;28.02;;;19.75;;
49366;SDS011;35245;52.026;8.540;2022-10-31T09:02:57;29.92;;;19.63;;
49366;SDS011;35245;52.026;8.540;2022-10-31T09:05:25;29.75;;;19.08;;
49366;SDS011;35245;52.026;8.540;2022-10-31T09:07:54;27.85;;;18.33;;
49366;SDS011;35245;52.026;8.540;2022-10-31T09:10:22;32.47;;;18.67;;
49366;SDS011;35245;52.026;8.540;2022-10-31T09:12:54;34.17;;;20.83;;
49366;SDS011;35245;52.026;8.540;2022-10-31T09:15:23;30.48;;;19.85;;
49366;SDS011;35245;52.026;8.540;2022-10-31T09:17:50;33.78;;;20.08;;
49366;SDS011;35245;52.026;8.540;2022-10-31T09:20:17;37.03;;;20.83;;
49366;SDS011;35245;52.026;8.540;2022-10-31T09:22:44;27.25;;;19.40;;
49366;SDS011;35245;52.026;8.540;2022-10-31T09:25:11;28.33;;;18.65;;
49366;SDS011;35245;52.026;8.540;2022-10-31T09:27:39;34.70;;;20.02;;
49366;SDS011;35245;52.026;8.540;2022-10-31T09:30:06;30.38;;;19.25;;
49366;SDS011;35245;52.026;8.540;2022-10-31T09:32:35;27.98;;;20.20;;
49366;SDS011;35245;52.026;8.540;2022-10-31T09:35:02;30.42;;;20.50;;
49366;SDS011;35245;52.026;8.540;2022-10-31T09:37:30;34.58;;;21.95;;
49366;SDS011;35245;52.026;8.540;2022-10-31T09:39:57;37.33;;;21.85;;
49366;SDS011;35245;52.026;8.540;2022-10-31T09:42:31;31.63;;;19.90;;
49366;SDS011;35245;52.026;8.540;2022-10-31T09:45:10;39.33;;;21.95;;
49366;SDS011;35245;52.026;8.540;2022-10-31T09:47:48;34.10;;;20.88;;
49366;SDS011;35245;52.026;8.540;2022-10-31T09:50:19;31.33;;;21.48;;
49366;SDS011;35245;52.026;8.540;2022-10-31T09:52:51;34.85;;;20.65;;
49366;SDS011;35245;52.026;8.540;2022-10-31T09:55:21;34.67;;;22.13;;
49366;SDS011;35245;52.026;8.540;2022-10-31T09:57:51;36.42;;;20.45;;
49366;SDS011;35245;52.026;8.540;2022-10-31T10:00:20;31.65;;;20.80;;
49366;SDS011;35245;52.026;8.540;2022-10-31T10:02:52;31.05;;;19.17;;
49366;SDS011;35245;52.026;8.540;2022-10-31T10:05:24;31.13;;;19.02;;
49366;SDS011;35245;52.026;8.540;2022-10-31T10:07:55;30.27;;;19.90;;
49366;SDS011;35245;52.026;8.540;2022-10-31T10:10:27;31.90;;;19.70;;
49366;SDS011;35245;52.026;8.540;2022-10-31T10:13:04;37.80;;;20.52;;
49366;SDS011;35245;52.026;8.540;2022-10-31T10:15:48;31.48;;;18.85;;
49366;SDS011;35245;52.026;8.540;2022-10-31T10:18:29;29.83;;;17.85;;
49366;SDS011;35245;52.026;8.540;2022-10-31T10:21:05;29.58;;;19.83;;
49366;SDS011;35245;52.026;8.540;2022-10-31T10:23:47;25.48;;;18.05;;
49366;SDS011;35245;52.026;8.540;2022-10-31T10:26:21;30.42;;;19.25;;
49366;SDS011;35245;52.026;8.540;2022-10-31T10:28:56;32.60;;;18.70;;
49366;SDS011;35245;52.026;8.540;2022-10-31T10:31:26;30.67;;;20.63;;
49366;SDS011;35245;52.026;8.540;2022-10-31T10:34:00;31.25;;;19.77;;
49366;SDS011;35245;52.026;8.540;2022-10-31T10:36:30;31.35;;;19.10;;
49366;SDS011;35245;52.026;8.540;2022-10-31T10:39:02;27.05;;;18.35;;
49366;SDS011;35245;52.026;8.540;2022-10-31T10:41:30;27.17;;;17.40;;
49366;SDS011;35245;52.026;8.540;2022-10-31T10:43:58;30.00;;;18.27;;
49366;SDS011;35245;52.026;8.540;2022-10-31T10:46:26;26.33;;;16.45;;
49366;SDS011;35245;52.026;8.540;2022-10-31T10:49:17;28.52;;;17.55;;
49366;SDS011;35245;52.026;8.540;2022-10-31T10:51:46;26.95;;;17.20;;
49366;SDS011;35245;52.026;8.540;2022-10-31T10:57:12;27.08;;;18.35;;
49366;SDS011;35245;52.026;8.540;2022-10-31T10:59:48;28.10;;;16.85;;
49366;SDS011;35245;52.026;8.540;2022-10-31T11:02:16;29.60;;;16.63;;
49366;SDS011;35245;52.026;8.540;2022-10-31T11:04:47;25.58;;;16.70;;
49366;SDS011;35245;52.026;8.540;2022-10-31T11:07:16;25.23;;;15.85;;
49366;SDS011;35245;52.026;8.540;2022-10-31T11:09:43;22.48;;;15.63;;
49366;SDS011;35245;52.026;8.540;2022-10-31T11:12:15;29.50;;;18.67;;
49366;SDS011;35245;52.026;8.540;2022-10-31T11:14:46;28.02;;;19.35;;
49366;SDS011;35245;52.026;8.540;2022-10-31T11:17:19;25.00;;;15.82;;
49366;SDS011;35245;52.026;8.540;2022-10-31T11:20:00;21.55;;;15.32;;
49366;SDS011;35245;52.026;8.540;2022-10-31T11:22:29;26.23;;;15.55;;
49366;SDS011;35245;52.026;8.540;2022-10-31T11:24:56;24.67;;;14.52;;
49366;SDS011;35245;52.026;8.540;2022-10-31T11:27:24;21.48;;;14.15;;
49366;SDS011;35245;52.026;8.540;2022-10-31T11:29:52;22.40;;;13.63;;
49366;SDS011;35245;52.026;8.540;2022-10-31T11:32:20;23.10;;;13.13;;
49366;SDS011;35245;52.026;8.540;2022-10-31T11:34:49;18.70;;;13.02;;
49366;SDS011;35245;52.026;8.540;2022-10-31T11:37:20;23.38;;;14.75;;
49366;SDS011;35245;52.026;8.540;2022-10-31T11:39:49;21.02;;;13.90;;
49366;SDS011;35245;52.026;8.540;2022-10-31T11:42:19;22.80;;;13.63;;
49366;SDS011;35245;52.026;8.540;2022-10-31T11:44:49;21.65;;;14.18;;
49366;SDS011;35245;52.026;8.540;2022-10-31T11:47:17;22.77;;;13.75;;
49366;SDS011;35245;52.026;8.540;2022-10-31T11:49:50;25.30;;;14.40;;
49366;SDS011;35245;52.026;8.540;2022-10-31T11:52:17;21.70;;;14.18;;
49366;SDS011;35245;52.026;8.540;2022-10-31T11:54:48;22.95;;;15.02;;
49366;SDS011;35245;52.026;8.540;2022-10-31T11:57:26;22.65;;;15.48;;
49366;SDS011;35245;52.026;8.540;2022-10-31T11:59:55;22.58;;;15.50;;
49366;SDS011;35245;52.026;8.540;2022-10-31T12:02:23;22.55;;;14.60;;
49366;SDS011;35245;52.026;8.540;2022-10-31T12:04:52;20.42;;;14.35;;
49366;SDS011;35245;52.026;8.540;2022-10-31T12:07:25;22.77;;;14.43;;
49366;SDS011;35245;52.026;8.540;2022-10-31T12:09:52;23.30;;;14.43;;
49366;SDS011;35245;52.026;8.540;2022-10-31T12:12:24;22.98;;;14.25;;
49366;SDS011;35245;52.026;8.540;2022-10-31T12:15:29;24.17;;;17.05;;
49366;SDS011;35245;52.026;8.540;2022-10-31T12:18:01;23.67;;;14.65;;
49366;SDS011;35245;52.026;8.540;2022-10-31T12:20:46;22.58;;;13.65;;
49366;SDS011;35245;52.026;8.540;2022-10-31T12:23:23;24.73;;;13.57;;
49366;SDS011;35245;52.026;8.540;2022-10-31T12:25:58;24.63;;;13.18;;
49366;SDS011;35245;52.026;8.540;2022-10-31T12:31:27;21.73;;;12.88;;
49366;SDS011;35245;52.026;8.540;2022-10-31T12:34:15;20.20;;;12.10;;
49366;SDS011;35245;52.026;8.540;2022-10-31T12:37:05;16.98;;;11.40;;
49366;SDS011;35245;52.026;8.540;2022-10-31T12:39:40;19.00;;;10.98;;
49366;SDS011;35245;52.026;8.540;2022-10-31T12:42:13;17.13;;;10.90;;
49366;SDS011;35245;52.026;8.540;2022-10-31T12:47:47;16.83;;;11.02;;
49366;SDS011;35245;52.026;8.540;2022-10-31T12:50:46;15.60;;;10.00;;
49366;SDS011;35245;52.026;8.540;2022-10-31T12:53:24;16.08;;;10.93;;
49366;SDS011;35245;52.026;8.540;2022-10-31T12:56:04;20.10;;;11.02;;
49366;SDS011;35245;52.026;8.540;2022-10-31T12:58:37;16.05;;;10.80;;
49366;SDS011;35245;52.026;8.540;2022-10-31T13:01:07;20.08;;;11.55;;
49366;SDS011;35245;52.026;8.540;2022-10-31T13:03:40;19.08;;;11.27;;
49366;SDS011;35245;52.026;8.540;2022-10-31T13:06:14;19.65;;;10.73;;
49366;SDS011;35245;52.026;8.540;2022-10-31T13:08:45;20.02;;;12.27;;
49366;SDS011;35245;52.026;8.540;2022-10-31T13:11:18;17.02;;;11.38;;
49366;SDS011;35245;52.026;8.540;2022-10-31T13:13:50;23.27;;;12.38;;
49366;SDS011;35245;52.026;8.540;2022-10-31T13:16:24;15.98;;;11.13;;
49366;SDS011;35245;52.026;8.540;2022-10-31T13:21:22;19.73;;;11.45;;
49366;SDS011;35245;52.026;8.540;2022-10-31T13:23:51;18.33;;;10.70;;
49366;SDS011;35245;52.026;8.540;2022-10-31T13:26:22;20.02;;;11.15;;
49366;SDS011;35245;52.026;8.540;2022-10-31T13:28:55;17.63;;;10.63;;
49366;SDS011;35245;52.026;8.540;2022-10-31T13:31:26;19.50;;;11.35;;
49366;SDS011;35245;52.026;8.540;2022-10-31T13:33:53;17.75;;;10.75;;
49366;SDS011;35245;52.026;8.540;2022-10-31T13:36:25;16.25;;;10.77;;
49366;SDS011;35245;52.026;8.540;2022-10-31T13:38:56;20.00;;;9.68;;
49366;SDS011;35245;52.026;8.540;2022-10-31T13:41:30;16.73;;;9.75;;
49366;SDS011;35245;52.026;8.540;2022-10-31T13:44:00;17.20;;;10.30;;
49366;SDS011;35245;52.026;8.540;2022-10-31T13:46:36;14.68;;;9.43;;
49366;SDS011;35245;52.026;8.540;2022-10-31T13:49:04;20.02;;;10.73;;
49366;SDS011;35245;52.026;8.540;2022-10-31T13:54:20;18.85;;;9.38;;
49366;SDS011;35245;52.026;8.540;2022-10-31T13:56:49;15.80;;;9.80;;
49366;SDS011;35245;52.026;8.540;2022-10-31T13:59:18;15.63;;;8.90;;
49366;SDS011;35245;52.026;8.540;2022-10-31T14:01:48;17.48;;;9.82;;
49366;SDS011;35245;52.026;8.540;2022-10-31T14:04:17;17.40;;;9.95;;
49366;SDS011;35245;52.026;8.540;2022-10-31T14:06:49;18.27;;;9.40;;
49366;SDS011;35245;52.026;8.540;2022-10-31T14:09:27;14.88;;;8.52;;
49366;SDS011;35245;52.026;8.540;2022-10-31T14:11:58;15.48;;;8.95;;
49366;SDS011;35245;52.026;8.540;2022-10-31T14:14:29;15.43;;;9.43;;
49366;SDS011;35245;52.026;8.540;2022-10-31T14:17:00;18.42;;;8.82;;
49366;SDS011;35245;52.026;8.540;2022-10-31T14:19:30;19.38;;;9.25;;
49366;SDS011;35245;52.026;8.540;2022-10-31T14:21:57;16.17;;;9.52;;
49366;SDS011;35245;52.026;8.540;2022-10-31T14:24:37;14.95;;;8.52;;
49366;SDS011;35245;52.026;8.540;2022-10-31T14:30:19;14.77;;;8.00;;
49366;SDS011;35245;52.026;8.540;2022-10-31T14:32:49;14.93;;;7.63;;
49366;SDS011;35245;52.026;8.540;2022-10-31T14:35:18;14.93;;;8.02;;
49366;SDS011;35245;52.026;8.540;2022-10-31T14:40:36;17.70;;;8.75;;
49366;SDS011;35245;52.026;8.540;2022-10-31T14:43:18;12.43;;;7.78;;
49366;SDS011;35245;52.026;8.540;2022-10-31T14:48:50;10.95;;;7.72;;
49366;SDS011;35245;52.026;8.540;2022-10-31T14:51:33;16.83;;;8.02;;
49366;SDS011;35245;52.026;8.540;2022-10-31T14:54:02;16.08;;;8.27;;
49366;SDS011;35245;52.026;8.540;2022-10-31T14:56:32;14.65;;;7.95;;
49366;SDS011;35245;52.026;8.540;2022-10-31T14:59:02;15.80;;;8.20;;
49366;SDS011;35245;52.026;8.540;2022-10-31T15:01:32;14.70;;;7.88;;
49366;SDS011;35245;52.026;8.540;2022-10-31T15:04:03;14.40;;;8.40;;
49366;SDS011;35245;52.026;8.540;2022-10-31T15:06:36;11.13;;;7.63;;
49366;SDS011;35245;52.026;8.540;2022-10-31T15:09:20;16.13;;;8.68;;